Terminal Aerodrome Forecast
Issued by NWS

Current Version | Previous Version | Text Only | Print | Product List | Glossary On
Versions: 1 2 3 4 5 6 7 8 9 10 11 12 13 14 15 16 17 18 19 20
000
FTUS45 KFGZ 291921 AAA
TAFGCN
TAF AMD
KGCN 291921Z 2919/3018 16008G18KT P6SM FEW100
      TEMPO 2920/2924 19008G16KT BKN100
     FM300200 VRB03KT P6SM FEW100=

USA.gov is the U.S. government's official web portal to all federal, state and local government web resources and services.